createdAt,value
2022-08-07T00:02:41.301Z,102700.34
2022-08-07T00:04:58.355Z,102694.00
2022-08-07T00:07:25.872Z,102694.44
2022-08-07T00:10:19.341Z,102690.13
2022-08-07T00:12:57.879Z,102682.78
2022-08-07T00:15:36.017Z,102687.06
2022-08-07T00:18:06.454Z,102688.81
2022-08-07T00:20:34.150Z,102684.31
2022-08-07T00:23:01.699Z,102691.56
2022-08-07T00:25:28.750Z,102683.41
2022-08-07T00:28:04.565Z,102686.13
2022-08-07T00:30:31.728Z,102687.41
2022-08-07T00:33:00.565Z,102682.41
2022-08-07T00:35:30.301Z,102681.59
2022-08-07T00:37:59.265Z,102672.88
2022-08-07T00:40:39.523Z,102674.34
2022-08-07T00:43:12.833Z,102670.81
2022-08-07T00:45:57.350Z,102674.00
2022-08-07T00:48:30.871Z,102663.09
2022-08-07T00:50:59.265Z,102660.00
2022-08-07T00:53:27.114Z,102657.97
2022-08-07T00:56:13.727Z,102651.25
2022-08-07T00:58:46.900Z,102660.38
2022-08-07T01:01:14.654Z,102660.31
2022-08-07T01:03:56.860Z,102661.38
2022-08-07T01:06:29.314Z,102665.13
2022-08-07T01:08:58.597Z,102666.22
2022-08-07T01:12:23.514Z,102667.47
2022-08-07T01:14:17.649Z,102667.94
2022-08-07T01:16:49.098Z,102671.78
2022-08-07T01:19:19.815Z,102669.25
2022-08-07T01:21:53.454Z,102664.56
2022-08-07T01:24:25.909Z,102670.28
2022-08-07T01:26:54.369Z,102666.09
2022-08-07T01:29:27.549Z,102656.94
2022-08-07T01:31:56.070Z,102656.34
2022-08-07T01:34:31.893Z,102662.63
2022-08-07T01:37:03.955Z,102664.09
2022-08-07T01:39:40.952Z,102655.53
2022-08-07T01:42:38.986Z,102655.81
2022-08-07T01:45:18.120Z,102668.31
2022-08-07T01:48:19.534Z,102658.56
2022-08-07T01:50:40.329Z,102659.25
2022-08-07T01:53:21.007Z,102660.56
2022-08-07T01:56:09.403Z,102656.72
2022-08-07T01:58:48.541Z,102652.63
2022-08-07T02:01:25.492Z,102658.09
2022-08-07T02:04:17.721Z,102648.31
2022-08-07T02:06:52.366Z,102651.94
2022-08-07T02:09:51.801Z,102653.50
2022-08-07T02:12:18.384Z,102647.03
2022-08-07T02:14:56.926Z,102642.78
2022-08-07T02:17:34.449Z,102639.34
2022-08-07T02:20:17.258Z,102647.78
2022-08-07T02:22:54.786Z,102641.06
2022-08-07T02:25:32.163Z,102633.72
2022-08-07T02:28:14.272Z,102635.06
2022-08-07T02:30:53.882Z,102634.91
2022-08-07T02:33:24.782Z,102638.84
2022-08-07T02:36:30.361Z,102636.56
2022-08-07T02:38:58.948Z,102627.88
2022-08-07T02:41:33.328Z,102629.63
2022-08-07T02:44:05.515Z,102625.25
2022-08-07T02:46:36.860Z,102628.94
2022-08-07T02:49:05.754Z,102622.38
2022-08-07T02:51:42.536Z,102627.34
2022-08-07T02:54:20.653Z,102624.53
2022-08-07T02:56:54.863Z,102622.09
2022-08-07T02:59:27.456Z,102620.75
2022-08-07T03:02:01.312Z,102618.47
2022-08-07T03:04:30.590Z,102617.88
2022-08-07T03:07:07.166Z,102617.78
2022-08-07T03:09:42.108Z,102622.66
2022-08-07T03:12:21.712Z,102624.31
2022-08-07T03:14:52.678Z,102629.81
2022-08-07T03:17:22.266Z,102634.81
2022-08-07T03:19:54.866Z,102621.81
2022-08-07T03:22:29.567Z,102630.69
2022-08-07T03:25:00.168Z,102622.16
2022-08-07T03:27:59.745Z,102621.03
2022-08-07T03:30:18.171Z,102630.28
2022-08-07T03:32:58.396Z,102620.31
2022-08-07T03:35:43.584Z,102622.38
2022-08-07T03:38:17.343Z,102632.28
2022-08-07T03:40:57.344Z,102618.50
2022-08-07T03:43:32.328Z,102616.38
2022-08-07T03:46:03.921Z,102619.91
2022-08-07T03:48:59.080Z,102611.75
2022-08-07T03:51:30.674Z,102621.00
2022-08-07T03:54:32.995Z,102620.16
2022-08-07T03:57:03.605Z,102615.03
2022-08-07T03:59:33.597Z,102612.50
2022-08-07T04:02:01.492Z,102618.72
2022-08-07T04:04:28.578Z,102614.53
2022-08-07T04:07:16.593Z,102621.91
2022-08-07T04:09:50.548Z,102616.53
2022-08-07T04:12:28.481Z,102613.28
2022-08-07T04:14:59.591Z,102612.63
2022-08-07T04:18:30.690Z,102611.53
2022-08-07T04:20:17.523Z,102624.31
2022-08-07T04:22:53.383Z,102613.84
2022-08-07T04:25:30.173Z,102619.50
2022-08-07T04:28:03.102Z,102617.59
2022-08-07T04:30:43.401Z,102621.47
2022-08-07T04:33:25.274Z,102615.34
2022-08-07T04:35:54.385Z,102616.50
2022-08-07T04:38:27.773Z,102612.88
2022-08-07T04:40:57.084Z,102609.06
2022-08-07T04:44:12.566Z,102620.25
2022-08-07T04:47:08.105Z,102620.38
2022-08-07T04:49:58.221Z,102625.50
2022-08-07T04:52:51.180Z,102624.28
2022-08-07T04:58:11.763Z,102623.31
2022-08-07T04:58:38.840Z,102627.41
2022-08-07T05:01:20.315Z,102627.97
2022-08-07T05:04:07.593Z,102627.97
2022-08-07T05:06:51.274Z,102625.75
2022-08-07T05:09:45.609Z,102624.09
2022-08-07T05:12:27.241Z,102623.19
2022-08-07T05:15:21.801Z,102616.56
2022-08-07T05:18:03.450Z,102618.34
2022-08-07T05:20:43.725Z,102619.06
2022-08-07T05:23:20.513Z,102626.59
2022-08-07T05:26:11.524Z,102622.75
2022-08-07T05:28:48.546Z,102626.59
2022-08-07T05:31:19.886Z,102622.56
2022-08-07T05:34:01.398Z,102623.09
2022-08-07T05:36:35.609Z,102624.53
2022-08-07T05:39:09.005Z,102622.53
2022-08-07T05:42:02.810Z,102622.53
2022-08-07T05:44:35.153Z,102621.50
2022-08-07T05:47:18.331Z,102625.25
2022-08-07T05:49:52.226Z,102622.38
2022-08-07T05:52:32.448Z,102624.47
2022-08-07T05:55:10.290Z,102628.88
2022-08-07T05:57:42.027Z,102633.28
2022-08-07T06:00:16.473Z,102634.75
2022-08-07T06:02:56.034Z,102637.88
2022-08-07T06:05:28.687Z,102642.41
2022-08-07T06:08:13.647Z,102643.00
2022-08-07T06:10:51.213Z,102640.13
2022-08-07T06:13:31.510Z,102653.56
2022-08-07T06:16:10.248Z,102645.63
2022-08-07T06:18:43.114Z,102649.84
2022-08-07T06:22:14.367Z,102648.63
2022-08-07T06:24:39.212Z,102653.25
2022-08-07T06:26:54.639Z,102662.44
2022-08-07T06:29:28.583Z,102651.63
2022-08-07T06:31:56.991Z,102653.81
2022-08-07T06:34:25.731Z,102650.59
2022-08-07T06:36:57.825Z,102656.13
2022-08-07T06:40:16.016Z,102654.25
2022-08-07T06:42:33.141Z,102658.38
2022-08-07T06:45:18.217Z,102652.91
2022-08-07T06:47:58.484Z,102648.47
2022-08-07T06:50:35.981Z,102650.81
2022-08-07T06:53:18.580Z,102651.75
2022-08-07T06:56:01.233Z,102650.66
2022-08-07T06:58:32.106Z,102637.44
2022-08-07T07:01:08.931Z,102641.13
2022-08-07T07:03:48.090Z,102644.59
2022-08-07T07:06:24.024Z,102637.97
2022-08-07T07:08:54.664Z,102635.53
2022-08-07T07:12:08.621Z,102641.81
2022-08-07T07:14:10.364Z,102644.34
2022-08-07T07:16:50.529Z,102651.00
2022-08-07T07:19:57.970Z,102646.69
2022-08-07T07:22:36.622Z,102638.03
2022-08-07T07:25:14.062Z,102636.13
2022-08-07T07:28:07.479Z,102633.31
2022-08-07T07:30:38.144Z,102641.16
2022-08-07T07:33:11.426Z,102636.50
2022-08-07T07:35:44.061Z,102631.81
2022-08-07T07:38:29.562Z,102637.81
2022-08-07T07:41:02.358Z,102631.78
2022-08-07T07:44:14.041Z,102623.28
2022-08-07T07:46:53.295Z,102620.47
2022-08-07T07:50:35.521Z,102626.50
2022-08-07T07:51:59.888Z,102620.56
2022-08-07T07:54:28.286Z,102622.69
2022-08-07T07:56:57.668Z,102622.22
2022-08-07T07:59:52.012Z,102616.28
2022-08-07T08:02:22.599Z,102619.00
2022-08-07T08:05:04.475Z,102624.09
2022-08-07T08:07:35.518Z,102613.63
2022-08-07T08:10:14.982Z,102611.72
2022-08-07T08:13:00.518Z,102612.34
2022-08-07T08:15:57.951Z,102605.78
2022-08-07T08:18:23.282Z,102606.50
2022-08-07T08:20:52.442Z,102607.88
2022-08-07T08:23:40.952Z,102611.97
2022-08-07T08:26:26.717Z,102607.34
2022-08-07T08:28:56.879Z,102605.91
2022-08-07T08:31:30.124Z,102599.75
2022-08-07T08:34:27.242Z,102596.34
2022-08-07T08:36:58.440Z,102604.84
2022-08-07T08:39:39.749Z,102599.31
2022-08-07T08:42:29.265Z,102601.19
2022-08-07T08:45:13.978Z,102599.13
2022-08-07T08:48:08.395Z,102590.91
2022-08-07T08:50:49.082Z,102597.72
2022-08-07T08:53:43.037Z,102602.25
2022-08-07T08:56:24.396Z,102590.66
2022-08-07T08:59:27.773Z,102594.56
2022-08-07T09:02:09.043Z,102578.94
2022-08-07T09:05:36.854Z,102593.44
2022-08-07T09:08:24.295Z,102580.84
2022-08-07T09:10:55.550Z,102582.94
2022-08-07T09:14:01.453Z,102596.69
2022-08-07T09:16:49.830Z,102586.25
2022-08-07T09:19:53.744Z,102580.94
2022-08-07T09:24:31.059Z,102589.94
2022-08-07T09:25:56.383Z,102591.22
2022-08-07T09:30:00.909Z,102587.25
2022-08-07T09:31:18.156Z,102585.94
2022-08-07T09:34:22.630Z,102581.28
2022-08-07T09:37:11.607Z,102584.03
2022-08-07T09:39:59.538Z,102583.78
2022-08-07T09:42:51.287Z,102574.97
2022-08-07T09:47:52.478Z,102564.66
2022-08-07T09:48:50.196Z,102571.69
2022-08-07T09:52:09.786Z,102567.88
2022-08-07T09:54:44.959Z,102573.03
2022-08-07T09:57:46.851Z,102570.31
2022-08-07T10:00:21.621Z,102566.13
2022-08-07T10:04:05.847Z,102563.03
2022-08-07T10:06:29.007Z,102557.53
2022-08-07T10:09:18.048Z,102556.50
2022-08-07T10:12:15.498Z,102555.22
2022-08-07T10:15:23.648Z,102549.31
2022-08-07T10:18:08.588Z,102553.72
2022-08-07T10:21:20.000Z,102551.00
2022-08-07T10:24:30.418Z,102537.66
2022-08-07T10:27:10.622Z,102525.53
2022-08-07T10:29:42.997Z,102525.91
2022-08-07T10:32:51.589Z,102529.69
2022-08-07T10:35:55.636Z,102517.13
2022-08-07T10:38:35.754Z,102515.09
2022-08-07T10:41:52.192Z,102520.25
2022-08-07T10:44:38.506Z,102510.38
2022-08-07T10:47:26.565Z,102519.47
2022-08-07T10:50:11.146Z,102508.63
2022-08-07T10:52:55.447Z,102508.72
2022-08-07T10:55:38.520Z,102505.38
2022-08-07T10:58:25.041Z,102509.19
2022-08-07T11:01:24.983Z,102509.34
2022-08-07T11:04:10.779Z,102499.28
2022-08-07T11:07:15.163Z,102492.34
2022-08-07T11:10:07.077Z,102492.25
2022-08-07T11:12:49.279Z,102487.41
2022-08-07T11:15:32.856Z,102491.66
2022-08-07T11:18:17.778Z,102486.31
2022-08-07T11:21:06.422Z,102478.38
2022-08-07T11:23:45.532Z,102473.72
2022-08-07T11:26:31.740Z,102473.34
2022-08-07T11:29:22.337Z,102474.59
2022-08-07T11:32:07.681Z,102470.66
2022-08-07T11:34:50.749Z,102466.69
2022-08-07T11:37:57.909Z,102471.56
2022-08-07T11:40:49.900Z,102461.50
2022-08-07T11:44:11.152Z,102459.19
2022-08-07T11:47:10.282Z,102463.44
2022-08-07T11:50:30.805Z,102474.34
2022-08-07T11:53:00.801Z,102466.47
2022-08-07T11:56:10.056Z,102457.41
2022-08-07T11:58:38.741Z,102458.88
2022-08-07T12:01:08.631Z,102462.56
2022-08-07T12:04:01.596Z,102460.97
2022-08-07T12:06:51.680Z,102454.41
2022-08-07T12:09:38.014Z,102453.03
2022-08-07T12:12:09.298Z,102450.06
2022-08-07T12:15:01.119Z,102459.25
2022-08-07T12:17:55.955Z,102454.84
2022-08-07T12:20:45.033Z,102461.53
2022-08-07T12:24:07.379Z,102461.47
2022-08-07T12:26:40.577Z,102463.34
2022-08-07T12:29:38.375Z,102458.66
2022-08-07T12:32:34.213Z,102453.75
2022-08-07T12:35:08.441Z,102458.56
2022-08-07T12:38:09.509Z,102464.31
2022-08-07T12:44:01.995Z,102474.88
2022-08-07T12:46:26.184Z,102461.72
2022-08-07T12:49:25.512Z,102459.19
2022-08-07T12:52:17.187Z,102462.88
2022-08-07T12:55:05.549Z,102465.88
2022-08-07T12:58:00.314Z,102461.03
2022-08-07T13:01:07.791Z,102461.25
2022-08-07T13:04:02.528Z,102462.38
2022-08-07T13:06:36.541Z,102461.41
2022-08-07T13:10:19.770Z,102450.78
2022-08-07T13:12:40.315Z,102468.72
2022-08-07T13:15:29.772Z,102455.41
2022-08-07T13:18:28.164Z,102460.69
2022-08-07T13:21:37.638Z,102454.91
2022-08-07T13:24:29.169Z,102452.63
2022-08-07T13:27:12.901Z,102454.22
2022-08-07T13:30:05.546Z,102450.28
2022-08-07T13:32:59.544Z,102448.63
2022-08-07T13:36:00.765Z,102445.56
2022-08-07T13:38:27.826Z,102438.50
2022-08-07T13:41:27.234Z,102437.16
2022-08-07T13:44:02.362Z,102430.94
2022-08-07T13:46:41.879Z,102426.34
2022-08-07T13:50:33.459Z,102413.50
2022-08-07T13:52:32.194Z,102415.69
2022-08-07T13:55:00.611Z,102416.81
2022-08-07T13:57:37.565Z,102405.84
2022-08-07T14:00:08.566Z,102406.88
2022-08-07T14:02:57.722Z,102409.56
2022-08-07T14:05:37.446Z,102403.78
2022-08-07T14:08:08.731Z,102402.28
2022-08-07T14:10:42.291Z,102410.41
2022-08-07T14:13:16.717Z,102415.25
2022-08-07T14:15:54.358Z,102412.88
2022-08-07T14:18:32.885Z,102405.19
2022-08-07T14:22:02.283Z,102411.28
2022-08-07T14:24:34.626Z,102408.19
2022-08-07T14:28:09.432Z,102405.34
2022-08-07T14:30:07.963Z,102402.47
2022-08-07T14:32:54.928Z,102397.22
2022-08-07T14:35:43.279Z,102403.50
2022-08-07T14:38:26.793Z,102400.78
2022-08-07T14:41:04.359Z,102405.25
2022-08-07T14:43:57.455Z,102403.59
2022-08-07T14:46:30.664Z,102396.97
2022-08-07T14:49:17.498Z,102396.69
2022-08-07T14:52:05.032Z,102395.25
2022-08-07T14:54:42.259Z,102401.53
2022-08-07T15:00:06.603Z,102400.47
2022-08-07T15:02:39.051Z,102392.31
2022-08-07T15:07:57.027Z,102395.66
2022-08-07T15:10:30.176Z,102389.91
2022-08-07T15:13:05.730Z,102393.59
2022-08-07T15:15:40.783Z,102385.16
2022-08-07T15:18:14.274Z,102385.53
2022-08-07T15:21:08.025Z,102384.06
2022-08-07T15:25:14.671Z,102384.50
2022-08-07T15:26:38.389Z,102385.91
2022-08-07T15:30:09.683Z,102379.22
2022-08-07T15:32:01.060Z,102376.56
2022-08-07T15:34:55.437Z,102373.75
2022-08-07T15:37:29.202Z,102369.47
2022-08-07T15:40:32.070Z,102371.94
2022-08-07T15:46:31.728Z,102378.44
2022-08-07T15:49:13.063Z,102370.66
2022-08-07T15:54:39.582Z,102371.06
2022-08-07T15:57:39.365Z,102374.31
2022-08-07T16:00:04.287Z,102361.59
2022-08-07T16:02:41.383Z,102365.81
2022-08-07T16:05:20.276Z,102364.75
2022-08-07T16:08:32.272Z,102368.00
2022-08-07T16:10:48.489Z,102365.16
2022-08-07T16:13:57.644Z,102348.53
2022-08-07T16:16:48.850Z,102360.47
2022-08-07T16:19:42.001Z,102368.25
2022-08-07T16:22:33.602Z,102364.81
2022-08-07T16:25:53.062Z,102361.25
2022-08-07T16:29:18.730Z,102353.97
2022-08-07T16:31:57.690Z,102355.56
2022-08-07T16:34:25.175Z,102354.63
2022-08-07T16:37:02.660Z,102365.97
2022-08-07T16:40:02.997Z,102359.19
2022-08-07T16:42:36.646Z,102363.28
2022-08-07T16:46:47.379Z,102369.34
2022-08-07T16:50:20.313Z,102365.50
2022-08-07T16:52:50.747Z,102370.84
2022-08-07T16:55:47.127Z,102364.75
2022-08-07T16:58:15.907Z,102368.41
2022-08-07T17:01:15.923Z,102360.16
2022-08-07T17:03:59.971Z,102362.03
2022-08-07T17:06:42.697Z,102361.72
2022-08-07T17:10:06.079Z,102366.03
2022-08-07T17:12:53.131Z,102369.59
2022-08-07T17:15:44.299Z,102364.59
2022-08-07T17:18:51.990Z,102361.06
2022-08-07T17:21:23.806Z,102358.84
2022-08-07T17:23:59.589Z,102359.53
2022-08-07T17:26:51.893Z,102353.91
2022-08-07T17:30:16.122Z,102355.66
2022-08-07T17:32:53.016Z,102347.91
2022-08-07T17:35:50.432Z,102349.41
2022-08-07T17:38:33.607Z,102347.94
2022-08-07T17:42:01.824Z,102350.41
2022-08-07T17:44:14.748Z,102347.59
2022-08-07T17:47:42.350Z,102344.66
2022-08-07T17:50:36.415Z,102346.78
2022-08-07T17:54:01.768Z,102348.50
2022-08-07T17:56:29.044Z,102350.69
2022-08-07T17:58:56.764Z,102350.38
2022-08-07T18:01:37.424Z,102354.09
2022-08-07T18:04:41.982Z,102358.78
2022-08-07T18:07:28.440Z,102355.75
2022-08-07T18:10:06.691Z,102353.81
2022-08-07T18:12:58.230Z,102365.81
2022-08-07T18:15:37.465Z,102365.94
2022-08-07T18:18:47.072Z,102362.78
2022-08-07T18:21:42.000Z,102355.63
2022-08-07T18:24:06.954Z,102365.31
2022-08-07T18:26:53.458Z,102365.31
2022-08-07T18:30:05.423Z,102363.13
2022-08-07T18:32:41.633Z,102373.06
2022-08-07T18:35:22.544Z,102362.47
2022-08-07T18:38:55.038Z,102364.03
2022-08-07T18:41:09.255Z,102367.66
2022-08-07T18:44:11.356Z,102369.81
2022-08-07T18:46:51.189Z,102385.03
2022-08-07T18:50:31.466Z,102381.91
2022-08-07T18:52:52.684Z,102390.53
2022-08-07T18:55:57.283Z,102389.72
2022-08-07T18:58:36.933Z,102397.28
2022-08-07T19:02:17.614Z,102398.25
2022-08-07T19:04:39.730Z,102408.41
2022-08-07T19:07:34.415Z,102406.81
2022-08-07T19:10:10.949Z,102406.69
2022-08-07T19:13:21.657Z,102412.63
2022-08-07T19:17:01.200Z,102418.75
2022-08-07T19:19:32.011Z,102434.69
2022-08-07T19:22:30.889Z,102436.69
2022-08-07T19:25:05.647Z,102435.28
2022-08-07T19:28:57.981Z,102437.13
2022-08-07T19:31:03.861Z,102441.41
2022-08-07T19:33:18.814Z,102449.34
2022-08-07T19:36:02.372Z,102451.75
2022-08-07T19:38:32.489Z,102455.13
2022-08-07T19:41:02.407Z,102455.84
2022-08-07T19:43:45.129Z,102463.22
2022-08-07T19:46:26.631Z,102460.69
2022-08-07T19:49:56.358Z,102462.00
2022-08-07T19:52:18.155Z,102464.94
2022-08-07T19:54:56.431Z,102468.88
2022-08-07T19:58:02.492Z,102462.66
2022-08-07T20:00:29.330Z,102467.38
2022-08-07T20:03:02.760Z,102457.25
2022-08-07T20:06:00.412Z,102452.66
2022-08-07T20:08:29.105Z,102467.13
2022-08-07T20:11:09.903Z,102466.47
2022-08-07T20:13:41.698Z,102469.25
2022-08-07T20:16:32.069Z,102465.25
2022-08-07T20:18:59.595Z,102463.84
2022-08-07T20:21:46.993Z,102464.19
2022-08-07T20:24:20.747Z,102461.88
2022-08-07T20:26:52.180Z,102456.84
2022-08-07T20:29:48.311Z,102467.19
2022-08-07T20:32:23.002Z,102464.69
2022-08-07T20:34:56.159Z,102459.66
2022-08-07T20:37:55.333Z,102464.00
2022-08-07T20:40:32.120Z,102464.44
2022-08-07T20:43:03.341Z,102460.63
2022-08-07T20:46:27.239Z,102461.16
2022-08-07T20:48:30.807Z,102462.56
2022-08-07T20:51:09.741Z,102459.56
2022-08-07T20:54:04.785Z,102454.88
2022-08-07T20:56:30.572Z,102458.59
2022-08-07T20:59:03.551Z,102458.97
2022-08-07T21:01:45.542Z,102460.41
2022-08-07T21:04:22.429Z,102463.53
2022-08-07T21:06:55.180Z,102468.84
2022-08-07T21:09:30.278Z,102467.06
2022-08-07T21:12:28.646Z,102465.53
2022-08-07T21:15:01.123Z,102464.53
2022-08-07T21:18:03.912Z,102460.41
2022-08-07T21:20:26.535Z,102463.19
2022-08-07T21:22:59.470Z,102456.56
2022-08-07T21:26:03.523Z,102460.69
2022-08-07T21:28:50.364Z,102454.44
2022-08-07T21:32:42.786Z,102459.28
2022-08-07T21:34:51.462Z,102452.06
2022-08-07T21:37:59.442Z,102467.13
2022-08-07T21:40:50.038Z,102468.78
2022-08-07T21:43:36.767Z,102466.25
2022-08-07T21:46:38.336Z,102469.66
2022-08-07T21:50:02.730Z,102467.00
2022-08-07T21:53:00.709Z,102467.53
2022-08-07T21:56:02.021Z,102468.97
2022-08-07T21:58:38.448Z,102467.88
2022-08-07T22:02:07.647Z,102469.03
2022-08-07T22:04:27.476Z,102474.97
2022-08-07T22:07:07.360Z,102465.50
2022-08-07T22:09:54.140Z,102466.94
2022-08-07T22:12:37.231Z,102475.81
2022-08-07T22:16:38.799Z,102480.53
2022-08-07T22:18:25.476Z,102477.91
2022-08-07T22:21:01.603Z,102484.13
2022-08-07T22:23:54.905Z,102482.16
2022-08-07T22:26:44.690Z,102484.88
2022-08-07T22:29:47.510Z,102489.19
2022-08-07T22:32:26.593Z,102483.59
2022-08-07T22:35:00.509Z,102485.25
2022-08-07T22:38:10.352Z,102487.41
2022-08-07T22:40:59.918Z,102483.38
2022-08-07T22:43:36.041Z,102490.03
2022-08-07T22:47:04.155Z,102480.59
2022-08-07T22:50:02.008Z,102474.56
2022-08-07T22:53:06.463Z,102483.91
2022-08-07T22:56:18.849Z,102479.59
2022-08-07T22:58:54.528Z,102484.81
2022-08-07T23:01:49.764Z,102480.03
2022-08-07T23:04:56.978Z,102479.59
2022-08-07T23:08:07.143Z,102471.91
2022-08-07T23:10:43.303Z,102475.03
2022-08-07T23:13:49.032Z,102468.00
2022-08-07T23:16:48.551Z,102481.00
2022-08-07T23:20:03.536Z,102475.41
2022-08-07T23:23:05.140Z,102478.00
2022-08-07T23:25:48.927Z,102477.31
2022-08-07T23:28:21.054Z,102475.53
2022-08-07T23:32:50.113Z,102476.81
2022-08-07T23:34:43.878Z,102466.38
2022-08-07T23:38:01.111Z,102475.81
2022-08-07T23:40:49.371Z,102476.22
2022-08-07T23:43:38.201Z,102474.81
2022-08-07T23:46:44.288Z,102474.31
2022-08-07T23:49:42.048Z,102466.41
2022-08-07T23:53:06.190Z,102476.00
2022-08-07T23:55:55.738Z,102468.31
2022-08-07T23:58:59.355Z,102467.56
